Tiempo atmosférico en la estación meteorológica de Pedrosillo de Los Aires, Salamanca (865 m.)



Fecha
DESCASC
Temp. máxima en grados centígrados (hora)
DESCASC
Temp. mínima en grados centígrados (hora)
DESCASC
Temp. media en grados centígrados
DESCASC
Racha de viento máxima en m/sg (hora)
DESCASC
Velocidad máxima media en intervalos de 10 minutos(hora)
DESCASC
Precipitaciones diarias en mm
DESCASC
Precipitaciones de 00:00 a 06:00 en mm
DESCASC
Precipitaciones de 06:00 a 12:00 en mm
DESCASC
Precipitaciones de 12:00 a 18:00 en mm
DESCASC
Precipitaciones de 18:00 a 24:00 en mm
DESCASC
17-01-2021 -- (--) -- (--) -- 5.83 (16:10) 4.72 (17:00) 0 0 0 0 0
16-01-2021 -- (--) -- (--) -- 7.22 (16:10) 4.72 (16:30) 0 0 0 0 0
15-01-2021 -- (--) -- (--) -- 12.22 (16:10) 8.61 (16:00) 0 0 0 0 0
14-01-2021 -- (--) -- (--) -- 6.11 (17:10) 5 (17:40) 0 0 0 0 0
13-01-2021 -- (--) -- (--) -- 5.28 (16:30) 4.17 (16:30) 0 0 0 0 0
12-01-2021 -- (--) -- (--) -- 4.44 (16:00) 3.33 (15:50) 0 0 0 0 0
11-01-2021 -- (--) -- (--) -- 11.11 (10:10) 6.94 (13:20) 0 0 0 0 0
10-01-2021 -- (--) -- (--) -- 11.39 (21:20) 7.78 (21:30) 0 0 0 0 0
09-01-2021 -- (--) -- (--) -- 19.44 (09:10) 10.83 (11:20) 0.2 0 0 0.2 0
08-01-2021 -- (--) -- (--) -- 14.17 (13:10) 9.72 (14:30) 0.2 0 0 0 0.2
07-01-2021 -- (--) -- (--) -- 8.06 (17:00) 6.11 (16:50) 0 0 0 0 0
06-01-2021 -- (--) -- (--) -- 9.44 (16:40) 6.67 (16:30) 0 0 0 0 0
05-01-2021 -- (--) -- (--) -- 4.72 (18:10) 3.33 (18:10) 0 0 0 0 0
04-01-2021 -- (--) -- (--) -- 7.5 (16:00) 4.44 (15:10) 0 0 0 0 0
03-01-2021 -- (--) -- (--) -- 10.28 (17:10) 5.28 (17:10) 0 0 0 0 0
02-01-2021 -- (--) -- (--) -- 8.33 (13:40) 5.56 (13:40) 0 0 0 0 0
01-01-2021 -- (--) -- (--) -- 10.28 (15:00) 6.11 (01:40) 0 0 0 0 0
31-12-2020 -- (--) -- (--) -- 11.39 (13:10) 7.78 (16:40) 1.4 0 0 0.6 0.8
30-12-2020 5.5 (16:10) -2.4 (-00:0) 1.5 7.22 (02:20) 4.17 (02:20) 0 0 0 0 0
29-12-2020 5.7 (15:20) -1.2 (-00:0) 2.2 12.22 (15:30) 7.78 (16:50) 0 0 0 0 0
28-12-2020 7.2 (03:30) 1.1 (00:00) 4.1 21.11 (02:10) 12.5 (00:50) 1.8 1.4 0.4 0 0
27-12-2020 7.5 (12:50) -5.6 (-00:0) 1 18.06 (23:20) 11.67 (23:59) 0 0 0 0 0
26-12-2020 4.8 (13:10) -6.2 (-00:0) -0.7 13.33 (11:30) 9.44 (15:10) 0 0 0 0 0
25-12-2020 5.5 (14:10) -2.2 (-00:0) 1.6 15.56 (15:10) 8.89 (14:30) 0 0 0 0 0
24-12-2020 6.8 (00:00) -0.2 (00:00) 3.3 7.78 (16:50) 5.56 (16:40) 0.6 0.6 0 0 0
23-12-2020 11.4 (14:00) 6.6 (03:30) 9 15 (07:30) 10 (07:20) 0.4 0 0 0 0.4
21-12-2020 12.7 (16:30) 6.9 (00:00) 9.8 7.22 (04:10) 4.72 (03:10) 0 0 0 0 0

Gráficas

Temp. máximas Temp. mínimas Temp. medias Precipitaciones Rachas de viento máximas Velocidades máximas media en intervalos de 10 minutos

Datos horarios

Fecha y hora oficial Temperatura (ºC) Velocidad del viento (km/h) Dirección del viento Racha (km/h) Dirección de racha Precipitación (mm) Presión (hPa) Tendencia (hPa) Humedad (%)
2021-01-19 23:00:00 -- 42 Sudoeste 64 Sudoeste 0 -- -- --
2021-01-19 22:00:00 -- 24 Sudoeste 40 Sudoeste 0 -- -- --
2021-01-19 21:00:00 -- 12 Sur 26 Sudoeste 0 -- -- --
2021-01-19 20:00:00 -- 11 Sudoeste 31 Sudoeste 0 -- -- --
2021-01-19 19:00:00 -- 16 Sudoeste 36 Sudoeste 0 -- -- --
2021-01-19 18:00:00 -- 22 Sudoeste 35 Sudoeste 0 -- -- --
2021-01-19 17:00:00 -- 14 Sudoeste 34 Sudoeste 0 -- -- --
2021-01-19 16:00:00 -- 18 Sudoeste 36 Sudoeste 0 -- -- --
2021-01-19 15:00:00 -- 21 Sudoeste 34 Sudoeste 0 -- -- --
2021-01-19 14:00:00 -- 17 Sudoeste 41 Sudoeste 0 -- -- --
2021-01-19 13:00:00 -- 30 Sudoeste 45 Sudoeste 0 -- -- --
2021-01-19 12:00:00 -- 25 Sudoeste 36 Sur 0 -- -- --
2021-01-19 11:00:00 -- 15 Sudoeste 21 Sudoeste 0 -- -- --
2021-01-19 10:00:00 -- 7 Sudoeste 16 Sur 0 -- -- --
2021-01-19 09:00:00 -- 10 Sudoeste 13 Oeste 0 -- -- --
2021-01-19 08:00:00 -- 10 Sudoeste 12 Sudoeste 0 -- -- --
2021-01-19 07:00:00 -- 5 Sudoeste 9 Sudoeste 0 -- -- --
2021-01-19 06:00:00 -- 5 Sur 10 Oeste 0 -- -- --
2021-01-19 05:00:00 -- 3 Oeste 9 Sudoeste 0 -- -- --
2021-01-19 04:00:00 -- 5 Noroeste 9 Oeste 0 -- -- --
2021-01-19 03:00:00 -- 6 Noroeste 8 Noroeste 0 -- -- --
2021-01-19 02:00:00 -- 8 Oeste 10 Oeste 0 -- -- --
2021-01-19 01:00:00 -- 7 Oeste 9 Oeste 0 -- -- --
2021-01-19 00:00:00 -- 3 Noroeste 7 Oeste 0 -- -- --
2021-01-18 23:00:00 -- 4 Oeste 6 Sudoeste 0 -- -- --
2021-01-18 22:00:00 -- 5 Oeste 9 Oeste 0 -- -- --
2021-01-18 21:00:00 -- 8 Oeste 8 Oeste 0 -- -- --
2021-01-18 20:00:00 -- 5 Oeste 9 Oeste 0 -- -- --
2021-01-18 19:00:00 -- 2 Noroeste 5 Oeste 0 -- -- --
2021-01-18 18:00:00 -- 5 Norte 21 Nordeste 0 -- -- --
2021-01-18 17:00:00 -- 14 Nordeste 22 Nordeste 0 -- -- --
2021-01-18 16:00:00 -- 19 Nordeste 23 Nordeste 0 -- -- --
2021-01-18 15:00:00 -- 11 Nordeste 15 Nordeste 0 -- -- --
2021-01-18 14:00:00 -- 6 Norte 9 Norte 0 -- -- --
2021-01-18 13:00:00 -- 3 Norte 6 Nordeste 0 -- -- --
2021-01-18 12:00:00 -- 4 Sudoeste 6 Oeste 0 -- -- --
2021-01-18 11:00:00 -- 0 Calma 8 Norte 0 -- -- --
2021-01-18 10:00:00 -- 3 Oeste 9 Oeste 0 -- -- --
2021-01-18 09:00:00 -- 4 Oeste 11 Oeste 0 -- -- --
2021-01-18 08:00:00 -- 7 Oeste 9 Oeste 0 -- -- --
2021-01-18 07:00:00 -- 5 Oeste 11 Sudoeste 0 -- -- --
2021-01-18 06:00:00 -- 4 Oeste 5 Sudoeste 0 -- -- --
2021-01-18 05:00:00 -- 3 Noroeste 8 Sudoeste 0 -- -- --
2021-01-18 04:00:00 -- 5 Norte 7 Norte 0 -- -- --
2021-01-18 03:00:00 -- 5 Oeste 7 Oeste 0 -- -- --
2021-01-18 02:00:00 -- 4 Oeste 7 Oeste 0 -- -- --
2021-01-18 01:00:00 -- 5 Oeste 6 Oeste 0 -- -- --
2021-01-18 00:00:00 -- 4 Noroeste 8 Oeste 0 -- -- --
2021-01-17 23:00:00 -- 6 Oeste 9 Oeste 0 -- -- --
2021-01-17 22:00:00 -- 3 Oeste 8 Oeste 0 -- -- --
2021-01-17 21:00:00 -- 7 Oeste 8 Oeste 0 -- -- --
2021-01-17 20:00:00 -- 0 Calma 6 Norte 0 -- -- --
2021-01-17 19:00:00 -- 5 Norte 18 Este 0 -- -- --
2021-01-17 18:00:00 -- 11 Nordeste 20 Nordeste 0 -- -- --
2021-01-17 17:00:00 -- 17 Nordeste 21 Nordeste 0 -- -- --
2021-01-17 16:00:00 -- 14 Nordeste 21 Nordeste 0 -- -- --
2021-01-17 15:00:00 -- 14 Nordeste 18 Nordeste 0 -- -- --
2021-01-17 14:00:00 -- 4 Norte 6 Norte 0 -- -- --
2021-01-17 13:00:00 -- 2 Norte 6 Norte 0 -- -- --
2021-01-17 12:00:00 -- 0 Calma 6 Sur 0 -- -- --
2021-01-17 11:00:00 -- 2 Norte 9 Oeste 0 -- -- --
2021-01-17 10:00:00 -- 5 Oeste 8 Oeste 0 -- -- --
2021-01-17 09:00:00 -- 5 Oeste 6 Oeste 0 -- -- --
2021-01-17 08:00:00 -- 3 Este 7 Sudoeste 0 -- -- --
2021-01-17 07:00:00 -- 0 Calma 9 Oeste 0 -- -- --
2021-01-17 06:00:00 -- 8 Oeste 9 Oeste 0 -- -- --
2021-01-17 05:00:00 -- 5 Oeste 9 Oeste 0 -- -- --
2021-01-17 04:00:00 -- 6 Oeste 10 Oeste 0 -- -- --
2021-01-17 03:00:00 -- 6 Oeste 10 Oeste 0 -- -- --
2021-01-17 02:00:00 -- 8 Oeste 9 Oeste 0 -- -- --
2021-01-17 01:00:00 -- 7 Sudoeste 10 Oeste 0 -- -- --
2021-01-17 00:00:00 -- 4 Oeste 9 Oeste 0 -- -- --
2021-01-16 23:00:00 -- 5 Oeste 11 Oeste 0 -- -- --
2021-01-16 22:00:00 -- 5 Oeste 10 Oeste 0 -- -- --
2021-01-16 21:00:00 -- 5 Oeste 9 Oeste 0 -- -- --
2021-01-16 20:00:00 -- 0 Calma 8 Norte 0 -- -- --
2021-01-16 19:00:00 -- 6 Nordeste 14 Nordeste 0 -- -- --
2021-01-16 18:00:00 -- 9 Nordeste 15 Nordeste 0 -- -- --
2021-01-16 17:00:00 -- 10 Nordeste 26 Nordeste 0 -- -- --
2021-01-16 16:00:00 -- 14 Nordeste 21 Nordeste 0 -- -- --
2021-01-16 15:00:00 -- 10 Nordeste 20 Nordeste 0 -- -- --
2021-01-16 14:00:00 -- 10 Nordeste 16 Nordeste 0 -- -- --
2021-01-16 13:00:00 -- 4 Norte 6 Norte 0 -- -- --
2021-01-16 12:00:00 -- 4 Sudoeste 6 Oeste 0 -- -- --
2021-01-16 11:00:00 -- 2 Nordeste 4 Nordeste 0 -- -- --
2021-01-16 10:00:00 -- 2 Nordeste 7 Nordeste 0 -- -- --
2021-01-16 09:00:00 -- 3 Nordeste 5 Nordeste 0 -- -- --
2021-01-16 08:00:00 -- 0 Calma 4 Nordeste 0 -- -- --
2021-01-16 07:00:00 -- 3 Nordeste 6 Nordeste 0 -- -- --
2021-01-16 06:00:00 -- 4 Nordeste 6 Nordeste 0 -- -- --
2021-01-16 05:00:00 -- 4 Nordeste 8 Nordeste 0 -- -- --
2021-01-16 04:00:00 -- 6 Nordeste 13 Nordeste 0 -- -- --
2021-01-16 03:00:00 -- 6 Nordeste 9 Nordeste 0 -- -- --
2021-01-16 02:00:00 -- 7 Nordeste 17 Nordeste 0 -- -- --
2021-01-16 01:00:00 -- 9 Nordeste 14 Este 0 -- -- --
2021-01-16 00:00:00 -- 9 Nordeste 16 Nordeste 0 -- -- --
2021-01-15 23:00:00 -- 7 Nordeste 15 Nordeste 0 -- -- --
2021-01-15 22:00:00 -- 12 Nordeste 25 Nordeste 0 -- -- --
2021-01-15 21:00:00 -- 14 Nordeste 27 Nordeste 0 -- -- --
2021-01-15 20:00:00 -- 19 Nordeste 26 Nordeste 0 -- -- --
2021-01-15 19:00:00 -- 17 Nordeste 26 Nordeste 0 -- -- --
2021-01-15 18:00:00 -- 9 Este 22 Nordeste 0 -- -- --
2021-01-15 17:00:00 -- 15 Nordeste 44 Nordeste 0 -- -- --
2021-01-15 16:00:00 -- 31 Nordeste 39 Nordeste 0 -- -- --
2021-01-15 15:00:00 -- 21 Nordeste 32 Nordeste 0 -- -- --
2021-01-15 14:00:00 -- 10 Nordeste 15 Nordeste 0 -- -- --
2021-01-15 13:00:00 -- 10 Nordeste 15 Nordeste 0 -- -- --
2021-01-15 12:00:00 -- 7 Nordeste 10 Nordeste 0 -- -- --
2021-01-15 11:00:00 -- 4 Este 6 Nordeste 0 -- -- --
2021-01-15 10:00:00 -- 2 Oeste 8 Norte 0 -- -- --
2021-01-15 09:00:00 -- 0 Calma 4 Oeste 0 -- -- --
2021-01-15 08:00:00 -- 3 Oeste 6 Oeste 0 -- -- --
2021-01-15 07:00:00 -- 3 Sur 10 Este 0 -- -- --
2021-01-15 06:00:00 -- 3 Nordeste 6 Sudoeste 0 -- -- --
2021-01-15 05:00:00 -- 2 Noroeste 7 Oeste 0 -- -- --
2021-01-15 04:00:00 -- 3 Sudoeste 6 Oeste 0 -- -- --
2021-01-15 03:00:00 -- 6 Sudoeste 8 Sudoeste 0 -- -- --
2021-01-15 02:00:00 -- 0 Calma 5 Nordeste 0 -- -- --
2021-01-15 01:00:00 -- 2 Norte 4 Sudoeste 0 -- -- --
2021-01-15 00:00:00 -- 0 Calma 4 Sudoeste 0 -- -- --
2021-01-14 23:00:00 -- 2 Sudoeste 6 Nordeste 0 -- -- --
2021-01-14 22:00:00 -- 3 Nordeste 5 Norte 0 -- -- --
2021-01-14 21:00:00 -- 3 Norte 5 Noroeste 0 -- -- --
2021-01-14 20:00:00 -- 3 Noroeste 10 Norte 0 -- -- --
2021-01-14 19:00:00 -- 8 Nordeste 15 Este 0 -- -- --
2021-01-14 18:00:00 -- 11 Nordeste 22 Nordeste 0 -- -- --
2021-01-14 17:00:00 -- 14 Nordeste 20 Nordeste 0 -- -- --
2021-01-14 16:00:00 -- 14 Nordeste 18 Norte 0 -- -- --
2021-01-14 15:00:00 -- 8 Nordeste 14 Nordeste 0 -- -- --
2021-01-14 14:00:00 -- 8 Nordeste 14 Nordeste 0 -- -- --
2021-01-14 13:00:00 -- 9 Nordeste 15 Nordeste 0 -- -- --
2021-01-14 12:00:00 -- 7 Nordeste 12 Nordeste 0 -- -- --
2021-01-14 11:00:00 -- 2 Nordeste 4 Nordeste 0 -- -- --
2021-01-14 10:00:00 -- 0 Calma 6 Oeste 0 -- -- --
2021-01-14 09:00:00 -- 6 Oeste 8 Noroeste 0 -- -- --
2021-01-14 08:00:00 -- 6 Oeste 8 Oeste 0 -- -- --
2021-01-14 07:00:00 -- 2 Noroeste 8 Oeste 0 -- -- --
2021-01-14 06:00:00 -- 4 Oeste 10 Oeste 0 -- -- --
2021-01-14 05:00:00 -- 6 Sudoeste 9 Oeste 0 -- -- --
2021-01-14 04:00:00 -- 6 Noroeste 8 Oeste 0 -- -- --
2021-01-14 03:00:00 -- 5 Oeste 8 Oeste 0 -- -- --
2021-01-14 02:00:00 -- 6 Oeste 8 Sudoeste 0 -- -- --
2021-01-14 01:00:00 -- 5 Sudoeste 6 Oeste 0 -- -- --
2021-01-14 00:00:00 -- 3 Noroeste 6 Noroeste 0 -- -- --
2021-01-13 23:00:00 -- 5 Noroeste 6 Noroeste 0 -- -- --
2021-01-13 22:00:00 -- 0 Calma 5 Sudoeste 0 -- -- --
2021-01-13 21:00:00 -- 4 Noroeste 6 Norte 0 -- -- --
2021-01-13 20:00:00 -- 2 Noroeste 8 Nordeste 0 -- -- --
2021-01-13 19:00:00 -- 4 Nordeste 8 Norte 0 -- -- --
2021-01-13 18:00:00 -- 6 Norte 12 Nordeste 0 -- -- --
2021-01-13 17:00:00 -- 8 Nordeste 19 Nordeste 0 -- -- --
2021-01-13 16:00:00 -- 12 Nordeste 17 Nordeste 0 -- -- --
2021-01-13 15:00:00 -- 9 Nordeste 14 Nordeste 0 -- -- --
2021-01-13 14:00:00 -- 10 Nordeste 14 Nordeste 0 -- -- --
2021-01-13 13:00:00 -- 6 Nordeste 10 Nordeste 0 -- -- --
2021-01-13 12:00:00 -- 0 Calma 4 Nordeste 0 -- -- --
2021-01-13 11:00:00 -- 0 Calma 4 Norte 0 -- -- --
2021-01-13 10:00:00 -- 0 Calma 10 Oeste 0 -- -- --
2021-01-13 09:00:00 -- 6 Oeste 10 Oeste 0 -- -- --
2021-01-13 08:00:00 -- 7 Oeste 8 Oeste 0 -- -- --
2021-01-13 07:00:00 -- 4 Noroeste 8 Oeste 0 -- -- --
2021-01-13 06:00:00 -- 8 Oeste 9 Oeste 0 -- -- --
2021-01-13 05:00:00 -- 4 Noroeste 8 Oeste 0 -- -- --
2021-01-13 04:00:00 -- 6 Oeste 10 Oeste 0 -- -- --
2021-01-13 03:00:00 -- 7 Oeste 9 Oeste 0 -- -- --
2021-01-13 02:00:00 -- 6 Oeste 7 Oeste 0 -- -- --
2021-01-13 01:00:00 -- 0 Calma 9 Oeste 0 -- -- --
2021-01-13 00:00:00 -- 5 Oeste 8 Oeste 0 -- -- --
2021-01-12 23:00:00 -- 5 Noroeste 8 Sudoeste 0 -- -- --
2021-01-12 22:00:00 -- 4 Oeste 9 Oeste 0 -- -- --
2021-01-12 21:00:00 -- 7 Oeste 9 Oeste 0 -- -- --
2021-01-12 20:00:00 -- 0 Calma 6 Nordeste 0 -- -- --
2021-01-12 19:00:00 -- 7 Nordeste 10 Nordeste 0 -- -- --
2021-01-12 18:00:00 -- 6 Nordeste 14 Nordeste 0 -- -- --
2021-01-12 17:00:00 -- 11 Nordeste 15 Nordeste 0 -- -- --
2021-01-12 16:00:00 -- 12 Nordeste 16 Nordeste 0 -- -- --
2021-01-12 15:00:00 -- 8 Nordeste 14 Nordeste 0 -- -- --
2021-01-12 14:00:00 -- 10 Nordeste 13 Nordeste 0 -- -- --
2021-01-12 13:00:00 -- 4 Norte 8 Norte 0 -- -- --
2021-01-12 12:00:00 -- 3 Norte 5 Norte 0 -- -- --
2021-01-12 11:00:00 -- 0 Calma 5 Sudoeste 0 -- -- --
2021-01-12 10:00:00 -- 2 Sudoeste 13 Oeste 0 -- -- --
2021-01-12 09:00:00 -- 6 Oeste 9 Oeste 0 -- -- --
2021-01-12 08:00:00 -- 4 Sudoeste 6 Oeste 0 -- -- --
2021-01-12 07:00:00 -- 3 Oeste 8 Oeste 0 -- -- --
2021-01-12 06:00:00 -- 6 Oeste 6 Oeste 0 -- -- --
2021-01-12 05:00:00 -- 5 Noroeste 10 Oeste 0 -- -- --
2021-01-12 04:00:00 -- 5 Sudoeste 9 Oeste 0 -- -- --
2021-01-12 03:00:00 -- 4 Oeste 9 Norte 0 -- -- --
2021-01-12 02:00:00 -- 5 Norte 8 Norte 0 -- -- --
2021-01-12 01:00:00 -- 6 Norte 9 Oeste 0 -- -- --
2021-01-12 00:00:00 -- 4 Norte 8 Oeste 0 -- -- --
2021-01-11 23:00:00 -- 4 Norte 12 Nordeste 0 -- -- --
2021-01-11 22:00:00 -- 3 Norte 9 Nordeste 0 -- -- --
2021-01-11 21:00:00 -- 3 Norte 8 Este 0 -- -- --
2021-01-11 20:00:00 -- 6 Nordeste 10 Nordeste 0 -- -- --
2021-01-11 19:00:00 -- 8 Nordeste 12 Nordeste 0 -- -- --
2021-01-11 18:00:00 -- 8 Nordeste 19 Este 0 -- -- --
2021-01-11 17:00:00 -- 13 Nordeste 25 Este 0 -- -- --
2021-01-11 16:00:00 -- 18 Nordeste 34 Nordeste 0 -- -- --
2021-01-11 15:00:00 -- 22 Nordeste 35 Nordeste 0 -- -- --
2021-01-11 14:00:00 -- 23 Nordeste 36 Nordeste 0 -- -- --
2021-01-11 13:00:00 -- 23 Nordeste 39 Nordeste 0 -- -- --
2021-01-11 12:00:00 -- 19 Nordeste 38 Este 0 -- -- --
2021-01-11 11:00:00 -- 23 Este 40 Este 0 -- -- --
2021-01-11 10:00:00 -- 19 Este 32 Este 0 -- -- --
2021-01-11 09:00:00 -- 21 Este 32 Este 0 -- -- --
2021-01-11 08:00:00 -- 11 Nordeste 16 Nordeste 0 -- -- --
2021-01-11 07:00:00 -- 9 Nordeste 30 Este 0 -- -- --
2021-01-11 06:00:00 -- 10 Este 18 Este 0 -- -- --
2021-01-11 05:00:00 -- 11 Nordeste 32 Este 0 -- -- --
2021-01-11 04:00:00 -- 17 Este 28 Este 0 -- -- --
2021-01-11 03:00:00 -- 16 Nordeste 24 Nordeste 0 -- -- --
2021-01-11 02:00:00 -- 17 Nordeste 24 Nordeste 0 -- -- --
2021-01-11 01:00:00 -- 16 Nordeste 23 Nordeste 0 -- -- --
2021-01-11 00:00:00 -- 15 Nordeste 26 Nordeste 0 -- -- --
2021-01-10 23:00:00 -- 21 Nordeste 35 Nordeste 0 -- -- --
2021-01-10 22:00:00 -- 25 Nordeste 41 Nordeste 0 -- -- --
2021-01-10 21:00:00 -- 21 Nordeste 30 Nordeste 0 -- -- --
2021-01-10 20:00:00 -- 15 Nordeste 28 Nordeste 0 -- -- --
2021-01-10 19:00:00 -- 18 Nordeste 28 Nordeste 0 -- -- --
2021-01-10 18:00:00 -- 18 Nordeste 26 Nordeste 0 -- -- --
2021-01-10 17:00:00 -- 15 Nordeste 25 Nordeste 0 -- -- --
2021-01-10 16:00:00 -- 18 Nordeste 35 Nordeste 0 -- -- --
2021-01-10 15:00:00 -- 22 Nordeste 31 Nordeste 0 -- -- --
2021-01-10 14:00:00 -- 19 Nordeste 28 Nordeste 0 -- -- --
2021-01-10 13:00:00 -- 16 Nordeste 21 Nordeste 0 -- -- --
2021-01-10 12:00:00 -- 13 Nordeste 19 Nordeste 0 -- -- --
2021-01-10 11:00:00 -- 13 Nordeste 20 Nordeste 0 -- -- --
2021-01-10 10:00:00 -- 14 Nordeste 19 Nordeste 0 -- -- --
2021-01-10 09:00:00 -- 11 Nordeste 18 Nordeste 0 -- -- --
2021-01-10 08:00:00 -- 13 Nordeste 24 Nordeste 0 -- -- --
2021-01-10 07:00:00 -- 15 Nordeste 30 Nordeste 0 -- -- --
2021-01-10 06:00:00 -- 21 Nordeste 31 Nordeste 0 -- -- --
2021-01-10 05:00:00 -- 18 Nordeste 32 Nordeste 0 -- -- --
2021-01-10 04:00:00 -- 24 Nordeste 34 Nordeste 0 -- -- --
2021-01-10 03:00:00 -- 23 Nordeste 32 Nordeste 0 -- -- --
2021-01-10 02:00:00 -- 19 Nordeste 27 Nordeste 0 -- -- --
2021-01-10 01:00:00 -- 17 Nordeste 27 Nordeste 0 -- -- --
2021-01-10 00:00:00 -- 15 Nordeste 22 Nordeste 0 -- -- --
2021-01-09 23:00:00 -- 14 Nordeste 22 Nordeste 0 -- -- --
2021-01-09 22:00:00 -- 15 Nordeste 23 Nordeste 0 -- -- --
2021-01-09 21:00:00 -- 15 Nordeste 21 Nordeste 0 -- -- --
2021-01-09 20:00:00 -- 16 Nordeste 28 Nordeste 0 -- -- --
2021-01-09 19:00:00 -- 18 Nordeste 32 Nordeste 0 -- -- --
2021-01-09 18:00:00 -- 22 Nordeste 33 Nordeste 0 -- -- --
2021-01-09 17:00:00 -- 24 Nordeste 44 Nordeste 0 -- -- --
2021-01-09 16:00:00 -- 23 Nordeste 39 Nordeste 0 -- -- --
2021-01-09 15:00:00 -- 23 Nordeste 39 Nordeste 0.2 -- -- --
2021-01-09 14:00:00 -- 26 Nordeste 40 Nordeste 0 -- -- --
2021-01-09 13:00:00 -- 24 Nordeste 54 Nordeste 0 -- -- --
2021-01-09 12:00:00 -- 30 Nordeste 54 Nordeste 0 -- -- --
2021-01-09 11:00:00 -- 33 Nordeste 50 Nordeste 0 -- -- --
2021-01-09 10:00:00 -- 37 Nordeste 70 Nordeste 0 -- -- --
2021-01-09 09:00:00 -- 35 Nordeste 55 Nordeste 0 -- -- --
2021-01-09 08:00:00 -- 35 Nordeste 51 Nordeste 0 -- -- --
2021-01-09 07:00:00 -- 28 Nordeste 48 Nordeste 0 -- -- --
2021-01-09 06:00:00 -- 25 Nordeste 39 Nordeste 0 -- -- --
2021-01-09 05:00:00 -- 26 Nordeste 38 Nordeste 0 -- -- --
2021-01-09 04:00:00 -- 25 Nordeste 45 Nordeste 0 -- -- --
2021-01-09 03:00:00 -- 23 Nordeste 40 Nordeste 0 -- -- --
2021-01-09 02:00:00 -- 24 Nordeste 43 Nordeste 0 -- -- --
2021-01-09 01:00:00 -- 28 Nordeste 52 Nordeste 0 -- -- --
2021-01-09 00:00:00 -- 30 Nordeste 40 Nordeste 0 -- -- --
2021-01-08 23:00:00 -- 21 Nordeste 38 Nordeste 0.2 -- -- --
2021-01-08 22:00:00 -- 22 Nordeste 36 Nordeste 0 -- -- --
2021-01-08 21:00:00 -- 22 Nordeste 37 Nordeste 0 -- -- --
2021-01-08 20:00:00 -- 26 Nordeste 40 Nordeste 0 -- -- --
2021-01-08 19:00:00 -- 24 Nordeste 32 Nordeste 0 -- -- --
2021-01-08 18:00:00 -- 23 Nordeste 37 Nordeste 0 -- -- --
2021-01-08 17:00:00 -- 23 Nordeste 41 Nordeste 0 -- -- --
2021-01-08 16:00:00 -- 26 Nordeste 42 Nordeste 0 -- -- --
2021-01-08 15:00:00 -- 31 Nordeste 44 Nordeste 0 -- -- --
2021-01-08 14:00:00 -- 31 Nordeste 51 Nordeste 0 -- -- --
2021-01-08 13:00:00 -- 30 Nordeste 41 Nordeste 0 -- -- --
2021-01-08 12:00:00 -- 25 Nordeste 37 Nordeste 0 -- -- --
2021-01-08 11:00:00 -- 27 Nordeste 38 Nordeste 0 -- -- --
2021-01-08 10:00:00 -- 26 Nordeste 35 Nordeste 0 -- -- --
2021-01-08 09:00:00 -- 24 Nordeste 35 Nordeste 0 -- -- --
2021-01-08 08:00:00 -- 27 Nordeste 36 Nordeste 0 -- -- --
2021-01-08 07:00:00 -- 21 Nordeste 41 Nordeste 0 -- -- --
2021-01-08 06:00:00 -- 21 Nordeste 27 Nordeste 0 -- -- --
2021-01-08 05:00:00 -- 17 Nordeste 24 Nordeste 0 -- -- --
2021-01-08 04:00:00 -- 17 Nordeste 25 Nordeste 0 -- -- --
2021-01-08 03:00:00 -- 16 Nordeste 28 Nordeste 0 -- -- --
2021-01-08 02:00:00 -- 17 Nordeste 26 Nordeste 0 -- -- --
2021-01-08 01:00:00 -- 18 Nordeste 27 Nordeste 0 -- -- --
2021-01-08 00:00:00 -- 17 Nordeste 21 Nordeste 0 -- -- --
2021-01-07 23:00:00 -- 10 Nordeste 13 Nordeste 0 -- -- --
2021-01-07 22:00:00 -- 7 Nordeste 11 Nordeste 0 -- -- --
2021-01-07 21:00:00 -- 6 Nordeste 19 Nordeste 0 -- -- --
2021-01-07 20:00:00 -- 14 Nordeste 21 Nordeste 0 -- -- --
2021-01-07 19:00:00 -- 16 Nordeste 24 Nordeste 0 -- -- --
2021-01-07 18:00:00 -- 20 Nordeste 29 Nordeste 0 -- -- --
2021-01-07 17:00:00 -- 19 Nordeste 29 Nordeste 0 -- -- --
2021-01-07 16:00:00 -- 18 Nordeste 28 Nordeste 0 -- -- --
2021-01-07 15:00:00 -- 18 Nordeste 25 Nordeste 0 -- -- --
2021-01-07 14:00:00 -- 14 Nordeste 22 Norte 0 -- -- --
2021-01-07 13:00:00 -- 12 Nordeste 18 Nordeste 0 -- -- --
2021-01-07 12:00:00 -- 13 Nordeste 17 Nordeste 0 -- -- --
2021-01-07 11:00:00 -- 5 Nordeste 13 Norte 0 -- -- --
2021-01-07 10:00:00 -- 8 Nordeste 12 Nordeste 0 -- -- --
2021-01-07 09:00:00 -- 8 Nordeste 11 Nordeste 0 -- -- --
2021-01-07 08:00:00 -- 5 Nordeste 10 Nordeste 0 -- -- --
2021-01-07 07:00:00 -- 10 Nordeste 15 Nordeste 0 -- -- --
2021-01-07 06:00:00 -- 4 Nordeste 17 Nordeste 0 -- -- --
2021-01-07 05:00:00 -- 12 Nordeste 24 Nordeste 0 -- -- --
2021-01-07 04:00:00 -- 9 Nordeste 15 Nordeste 0 -- -- --
2021-01-07 03:00:00 -- 7 Nordeste 13 Nordeste 0 -- -- --
2021-01-07 02:00:00 -- 8 Nordeste 11 Nordeste 0 -- -- --
2021-01-07 01:00:00 -- 7 Nordeste 14 Nordeste 0 -- -- --
2021-01-07 00:00:00 -- 12 Nordeste 17 Nordeste 0 -- -- --
2021-01-06 23:00:00 -- 6 Nordeste 18 Nordeste 0 -- -- --
2021-01-06 22:00:00 -- 13 Nordeste 18 Nordeste 0 -- -- --
2021-01-06 21:00:00 -- 10 Nordeste 17 Nordeste 0 -- -- --
2021-01-06 20:00:00 -- 14 Nordeste 20 Nordeste 0 -- -- --
2021-01-06 19:00:00 -- 14 Nordeste 28 Nordeste 0 -- -- --
2021-01-06 18:00:00 -- 19 Nordeste 30 Nordeste 0 -- -- --
2021-01-06 17:00:00 -- 22 Nordeste 34 Nordeste 0 -- -- --
2021-01-06 16:00:00 -- 20 Nordeste 30 Nordeste 0 -- -- --
2021-01-06 15:00:00 -- 19 Nordeste 27 Nordeste 0 -- -- --
2021-01-06 14:00:00 -- 14 Nordeste 19 Nordeste 0 -- -- --
2021-01-06 13:00:00 -- 10 Nordeste 15 Norte 0 -- -- --
2021-01-06 12:00:00 -- 6 Nordeste 11 Nordeste 0 -- -- --
2021-01-06 11:00:00 -- 0 Calma 4 Este 0 -- -- --
2021-01-06 10:00:00 -- 0 Calma 4 Noroeste 0 -- -- --
2021-01-06 09:00:00 -- 3 Noroeste 5 Oeste 0 -- -- --
2021-01-06 08:00:00 -- 3 Oeste 6 Noroeste 0 -- -- --
2021-01-06 07:00:00 -- 4 Noroeste 6 Oeste 0 -- -- --
2021-01-06 06:00:00 -- 3 Sudoeste 9 Oeste 0 -- -- --
2021-01-06 05:00:00 -- 4 Oeste 7 Oeste 0 -- -- --
2021-01-06 04:00:00 -- 4 Oeste 10 Sudoeste 0 -- -- --
2021-01-06 03:00:00 -- 8 Oeste 11 Sudoeste 0 -- -- --
2021-01-06 02:00:00 -- 5 Oeste 8 Oeste 0 -- -- --
2021-01-06 01:00:00 -- 6 Oeste 8 Oeste 0 -- -- --
2021-01-06 00:00:00 -- 4 Noroeste 6 Norte 0 -- -- --
2021-01-05 23:00:00 -- 3 Sudoeste 12 Noroeste 0 -- -- --
2021-01-05 22:00:00 -- 4 Noroeste 10 Oeste 0 -- -- --
2021-01-05 21:00:00 -- 4 Noroeste 7 Oeste 0 -- -- --
2021-01-05 20:00:00 -- 3 Nordeste 14 Nordeste 0 -- -- --
2021-01-05 19:00:00 -- 9 Nordeste 17 Nordeste 0 -- -- --
2021-01-05 18:00:00 -- 11 Nordeste 15 Nordeste 0 -- -- --
2021-01-05 17:00:00 -- 10 Nordeste 17 Nordeste 0 -- -- --
2021-01-05 16:00:00 -- 8 Nordeste 17 Nordeste 0 -- -- --
2021-01-05 15:00:00 -- 7 Nordeste 17 Nordeste 0 -- -- --
2021-01-05 14:00:00 -- 8 Nordeste 17 Nordeste 0 -- -- --
2021-01-05 13:00:00 -- 6 Nordeste 10 Nordeste 0 -- -- --
2021-01-05 12:00:00 -- 3 Norte 5 Norte 0 -- -- --
2021-01-05 11:00:00 -- 2 Norte 5 Oeste 0 -- -- --
2021-01-05 10:00:00 -- 3 Oeste 5 Oeste 0 -- -- --
2021-01-05 09:00:00 -- 3 Sudoeste 4 Sur 0 -- -- --
2021-01-05 08:00:00 -- 4 Norte 8 Norte 0 -- -- --
2021-01-05 07:00:00 -- 0 Calma 5 Sudoeste 0 -- -- --
2021-01-05 06:00:00 -- 2 Sudoeste 10 Sudoeste 0 -- -- --
2021-01-05 05:00:00 -- 6 Sudoeste 9 Sudoeste 0 -- -- --
2021-01-05 04:00:00 -- 5 Sudoeste 9 Oeste 0 -- -- --
2021-01-05 03:00:00 -- 5 Oeste 8 Oeste 0 -- -- --
2021-01-05 02:00:00 -- 3 Oeste 7 Oeste 0 -- -- --
2021-01-05 01:00:00 -- 2 Oeste 12 Sudoeste 0 -- -- --
2021-01-05 00:00:00 -- 6 Oeste 13 Oeste 0 -- -- --
2021-01-04 23:00:00 -- 8 Oeste 12 Oeste 0 -- -- --
2021-01-04 22:00:00 -- 9 Oeste 11 Oeste 0 -- -- --
2021-01-04 21:00:00 -- 9 Oeste 12 Sudoeste 0 -- -- --
2021-01-04 20:00:00 -- 3 Noroeste 11 Noroeste 0 -- -- --
2021-01-04 19:00:00 -- 8 Noroeste 13 Noroeste 0 -- -- --
2021-01-04 18:00:00 -- 8 Noroeste 21 Oeste 0 -- -- --
2021-01-04 17:00:00 -- 12 Oeste 22 Oeste 0 -- -- --
2021-01-04 16:00:00 -- 15 Oeste 27 Oeste 0 -- -- --
2021-01-04 15:00:00 -- 14 Oeste 24 Oeste 0 -- -- --
2021-01-04 14:00:00 -- 10 Oeste 21 Oeste 0 -- -- --
2021-01-04 13:00:00 -- 14 Oeste 23 Oeste 0 -- -- --
2021-01-04 12:00:00 -- 14 Oeste 24 Oeste 0 -- -- --
2021-01-04 11:00:00 -- 13 Oeste 21 Oeste 0 -- -- --
2021-01-04 10:00:00 -- 6 Sudoeste 12 Oeste 0 -- -- --
2021-01-04 09:00:00 10 8 Oeste 15 Oeste 0 -- -- --
2021-01-04 08:00:00 23 4 Sudoeste 10 Oeste 0 -- -- --
2021-01-04 07:00:00 -- 3 Sudoeste 10 Oeste 0 -- -- --
2021-01-04 06:00:00 -- 7 Oeste 14 Noroeste 0 -- -- --
2021-01-04 05:00:00 -- 3 Noroeste 20 Oeste 0 -- -- --
2021-01-04 04:00:00 -- 10 Oeste 23 Oeste 0 -- -- --
2021-01-04 03:00:00 -- 13 Oeste 22 Oeste 0 -- -- --
2021-01-04 02:00:00 -- 11 Oeste 23 Sudoeste 0 -- -- --
2021-01-04 01:00:00 -- 11 Sudoeste 21 Oeste 0 -- -- --
2021-01-04 00:00:00 -- 7 Sudoeste 17 Oeste 0 -- -- --
2021-01-03 23:00:00 -- 10 Sudoeste 19 Sudoeste 0 -- -- --
2021-01-03 22:00:00 -- 3 Oeste 14 Sudoeste 0 -- -- --
2021-01-03 21:00:00 -- 8 Sudoeste 13 Sudoeste 0 -- -- --
2021-01-03 20:00:00 -- 6 Oeste 12 Sudoeste 0 -- -- --
2021-01-03 19:00:00 -- 0 Calma 12 Oeste 0 -- -- --
2021-01-03 18:00:00 -- 6 Oeste 37 Oeste 0 -- -- --
2021-01-03 17:00:00 -- 18 Oeste 31 Oeste 0 -- -- --
2021-01-03 16:00:00 -- 11 Oeste 20 Sudoeste 0 -- -- --
2021-01-03 15:00:00 -- 11 Oeste 28 Sudoeste 0 -- -- --
2021-01-03 14:00:00 -- 11 Oeste 26 Oeste 0 -- -- --
2021-01-03 13:00:00 -- 15 Oeste 22 Sudoeste 0 -- -- --
2021-01-03 12:00:00 -- 10 Oeste 19 Oeste 0 -- -- --
2021-01-03 11:00:00 -- 9 Oeste 15 Oeste 0 -- -- 2
2021-01-03 10:00:00 -- 5 Oeste 9 Oeste 0 -- -- --
2021-01-03 09:00:00 -- 8 Oeste 15 Sudoeste 0 -- -- --
2021-01-03 08:00:00 -- 8 Sudoeste 14 Sudoeste 0 -- -- --
2021-01-03 07:00:00 -- 7 Oeste 9 Sudoeste 0 -- -- --
2021-01-03 06:00:00 -- 7 Oeste 13 Sudoeste 0 -- -- --
2021-01-03 05:00:00 -- 10 Sudoeste 15 Oeste 0 -- -- --
2021-01-03 04:00:00 -- 10 Sudoeste 13 Sudoeste 0 -- -- --
2021-01-03 03:00:00 -- 7 Oeste 8 Oeste 0 -- -- --
2021-01-03 02:00:00 -- 9 Oeste 12 Oeste 0 -- -- --
2021-01-03 01:00:00 -- 6 Oeste 12 Oeste 0 -- -- --
2021-01-03 00:00:00 -- 7 Oeste 12 Oeste 0 -- -- --
2021-01-02 23:00:00 -- 6 Oeste 11 Oeste 0 -- -- --
2021-01-02 22:00:00 -- 6 Sudoeste 12 Sudoeste 0 -- -- --
2021-01-02 21:00:00 -- 3 Sudoeste 13 Oeste 0 -- -- --
2021-01-02 20:00:00 -- 7 Oeste 10 Oeste 0 -- -- --
2021-01-02 19:00:00 -- 2 Nordeste 15 Nordeste 0 -- -- --
2021-01-02 18:00:00 -- 9 Nordeste 22 Norte 0 -- -- --
2021-01-02 17:00:00 -- 15 Norte 25 Norte 0 -- -- --
2021-01-02 16:00:00 -- 13 Nordeste 29 Nordeste 0 -- -- --
2021-01-02 15:00:00 -- 14 Nordeste 28 Nordeste 0 -- -- --
2021-01-02 14:00:00 -- 15 Norte 30 Norte 0 -- -- --